Time;durP1;ratioP1;P1;durP2;ratioP2;P2;SDS_P1;SDS_P2;PMS_P1;PMS_P2;Temp;Humidity;BMP_temperature;BMP_pressure;BME280_temperature;BME280_humidity;BME280_pressure;Samples;Min_cycle;Max_cycle;Signal;HPM_P1;HPM_P2
2023/08/07 00:02:24;;;;;;;14.07;12.98;;;;;;;;;;5020592;28;20033;-60
2023/08/07 00:04:49;;;;;;;10.45;9.82;;;;;;;;;;5027620;28;20361;-59
2023/08/07 00:07:15;;;;;;;14.23;13.23;;;;;;;;;;5026900;28;20021;-60
2023/08/07 00:09:40;;;;;;;9.73;8.98;;;;;;;;;;5027845;28;20031;-57
2023/08/07 00:12:05;;;;;;;11.27;10.43;;;;;;;;;;5027479;28;20037;-59
2023/08/07 00:14:30;;;;;;;13.50;12.40;;;;;;;;;;5027797;28;20227;-59
2023/08/07 00:16:56;;;;;;;18.63;17.27;;;;;;;;;;5018979;28;20295;-58
2023/08/07 00:19:21;;;;;;;33.65;31.63;;;;;;;;;;5021773;28;20501;-59
2023/08/07 00:21:46;;;;;;;26.63;24.95;;;;;;;;;;5019920;28;20056;-59
2023/08/07 00:24:12;;;;;;;28.48;26.77;;;;;;;;;;5024740;28;20397;-58
2023/08/07 00:26:37;;;;;;;25.63;24.02;;;;;;;;;;5008456;28;20057;-58
2023/08/07 00:29:02;;;;;;;18.23;16.92;;;;;;;;;;5022006;28;20053;-60
2023/08/07 00:31:31;;;;;;;19.85;18.58;;;;;;;;;;5022722;28;20030;-57
2023/08/07 00:33:56;;;;;;;22.15;20.42;;;;;;;;;;5027455;28;20028;-59
2023/08/07 00:36:21;;;;;;;33.88;31.48;;;;;;;;;;5037526;28;20018;-59
2023/08/07 00:38:47;;;;;;;30.90;28.70;;;;;;;;;;5006125;28;20533;-60
2023/08/07 00:41:12;;;;;;;29.35;27.30;;;;;;;;;;5008714;28;20061;-58
2023/08/07 00:43:37;;;;;;;31.90;29.67;;;;;;;;;;5008048;28;20030;-58
2023/08/07 00:46:03;;;;;;;39.03;36.38;;;;;;;;;;5016988;28;20465;-59
2023/08/07 00:48:29;;;;;;;36.50;33.65;;;;;;;;;;5024689;28;20033;-59
2023/08/07 00:50:55;;;;;;;47.05;44.00;;;;;;;;;;5024690;28;20476;-59
2023/08/07 00:53:20;;;;;;;58.22;54.15;;;;;;;;;;5026348;28;20021;-58
2023/08/07 00:55:46;;;;;;;54.92;51.35;;;;;;;;;;5026261;28;20477;-58
2023/08/07 00:58:11;;;;;;;70.13;65.55;;;;;;;;;;5026467;28;20022;-59
2023/08/07 01:00:37;;;;;;;72.13;67.07;;;;;;;;;;5026923;28;20042;-59
2023/08/07 01:03:05;;;;;;;57.35;53.45;;;;;;;;;;5026194;28;20522;-59
2023/08/07 01:05:30;;;;;;;67.00;62.67;;;;;;;;;;5026781;28;20113;-59
2023/08/07 01:07:56;;;;;;;28.15;25.90;;;;;;;;;;5026008;28;20100;-59
2023/08/07 01:10:32;;;;;;;68.43;64.03;;;;;;;;;;5026520;28;20427;-56
2023/08/07 01:13:04;;;;;;;88.22;82.50;;;;;;;;;;5020689;28;20128;-59
2023/08/07 01:15:30;;;;;;;58.38;54.13;;;;;;;;;;5007127;28;20657;-59
2023/08/07 01:17:56;;;;;;;84.82;79.45;;;;;;;;;;5020040;28;20030;-59
2023/08/07 01:20:21;;;;;;;51.78;48.13;;;;;;;;;;5006636;28;20461;-60
2023/08/07 01:22:47;;;;;;;45.42;42.17;;;;;;;;;;5027094;28;20098;-59
2023/08/07 01:25:12;;;;;;;74.00;69.28;;;;;;;;;;5026403;28;20022;-60
2023/08/07 01:28:07;;;;;;;46.60;43.53;;;;;;;;;;5027524;28;20034;-59
2023/08/07 01:30:36;;;;;;;118.70;110.55;;;;;;;;;;5037239;28;20068;-59
2023/08/07 01:33:02;;;;;;;100.95;94.15;;;;;;;;;;5011276;28;21947;-59
2023/08/07 01:35:29;;;;;;;107.07;99.97;;;;;;;;;;4993747;28;20033;-60
2023/08/07 01:37:55;;;;;;;58.70;54.67;;;;;;;;;;5026612;28;20269;-60
2023/08/07 01:40:21;;;;;;;72.00;67.20;;;;;;;;;;5042290;28;20112;-59
2023/08/07 01:42:47;;;;;;;50.30;46.95;;;;;;;;;;5027036;28;20499;-59
2023/08/07 01:45:12;;;;;;;62.95;58.78;;;;;;;;;;5023508;28;20028;-59
2023/08/07 01:47:37;;;;;;;55.65;51.80;;;;;;;;;;5024009;28;20392;-60
2023/08/07 01:50:03;;;;;;;60.33;56.38;;;;;;;;;;5033056;28;20029;-60
2023/08/07 01:52:28;;;;;;;60.03;56.28;;;;;;;;;;5029611;28;20075;-58
2023/08/07 01:54:54;;;;;;;74.85;69.82;;;;;;;;;;5023287;28;20045;-59
2023/08/07 01:57:19;;;;;;;51.25;47.63;;;;;;;;;;4976297;28;20125;-60
2023/08/07 01:59:44;;;;;;;52.25;48.65;;;;;;;;;;5003300;28;20053;-59
2023/08/07 02:02:10;;;;;;;60.17;56.10;;;;;;;;;;4991474;28;20486;-59
2023/08/07 02:04:35;;;;;;;65.07;60.78;;;;;;;;;;4983975;28;20579;-60
2023/08/07 02:07:00;;;;;;;59.72;55.50;;;;;;;;;;4982077;28;20033;-60
2023/08/07 02:09:25;;;;;;;86.67;80.70;;;;;;;;;;4984141;28;20042;-60
2023/08/07 02:11:51;;;;;;;67.22;62.78;;;;;;;;;;4983432;28;20822;-59
2023/08/07 02:14:16;;;;;;;82.25;77.00;;;;;;;;;;4983623;28;20040;-58
2023/08/07 02:16:41;;;;;;;138.37;128.37;;;;;;;;;;4983136;28;20026;-59
2023/08/07 02:19:06;;;;;;;77.47;72.28;;;;;;;;;;4982466;28;20316;-59
2023/08/07 02:21:32;;;;;;;83.20;77.85;;;;;;;;;;4987542;28;20301;-59
2023/08/07 02:23:57;;;;;;;79.63;73.85;;;;;;;;;;5002859;28;20535;-58
2023/08/07 02:26:23;;;;;;;71.95;67.20;;;;;;;;;;4997008;28;20096;-59
2023/08/07 02:28:48;;;;;;;122.53;114.43;;;;;;;;;;5016132;28;20027;-59
2023/08/07 02:31:13;;;;;;;78.45;73.15;;;;;;;;;;4983402;28;20077;-58
2023/08/07 02:33:38;;;;;;;171.32;159.13;;;;;;;;;;4993018;28;20033;-60
2023/08/07 02:36:04;;;;;;;184.68;167.38;;;;;;;;;;5040748;28;20040;-58
2023/08/07 02:38:29;;;;;;;164.38;151.45;;;;;;;;;;5020905;28;20355;-60
2023/08/07 02:40:54;;;;;;;144.60;133.85;;;;;;;;;;5013756;28;20057;-59
2023/08/07 02:43:20;;;;;;;112.80;105.07;;;;;;;;;;5006233;28;20378;-59
2023/08/07 02:45:45;;;;;;;114.90;106.95;;;;;;;;;;5004985;28;20599;-59
2023/08/07 02:48:10;;;;;;;133.65;124.55;;;;;;;;;;5024155;28;20025;-59
2023/08/07 02:50:35;;;;;;;110.15;102.10;;;;;;;;;;5024831;28;20474;-59
2023/08/07 02:53:01;;;;;;;92.28;85.63;;;;;;;;;;5007510;28;20292;-59
2023/08/07 02:55:27;;;;;;;114.45;106.85;;;;;;;;;;5005271;28;20053;-58
2023/08/07 02:57:52;;;;;;;85.43;79.70;;;;;;;;;;5021687;28;20428;-59
2023/08/07 03:00:18;;;;;;;115.35;107.55;;;;;;;;;;5025046;28;20112;-59
2023/08/07 03:02:43;;;;;;;113.75;106.15;;;;;;;;;;5028472;28;20128;-59
2023/08/07 03:05:08;;;;;;;118.10;110.68;;;;;;;;;;5024239;28;20025;-59
2023/08/07 03:07:34;;;;;;;104.05;96.78;;;;;;;;;;5041185;28;20040;-58
2023/08/07 03:09:59;;;;;;;85.30;79.40;;;;;;;;;;5037530;28;20489;-58
2023/08/07 03:12:24;;;;;;;122.00;114.10;;;;;;;;;;5028862;28;20087;-59
2023/08/07 03:14:50;;;;;;;113.50;105.78;;;;;;;;;;5029415;28;20026;-59
2023/08/07 03:17:15;;;;;;;113.70;106.18;;;;;;;;;;5017615;28;20061;-59
2023/08/07 03:19:42;;;;;;;101.22;94.00;;;;;;;;;;5020255;28;20045;-58
2023/08/07 03:22:07;;;;;;;100.40;93.43;;;;;;;;;;5037526;28;20021;-60
2023/08/07 03:24:32;;;;;;;104.23;96.83;;;;;;;;;;5022924;28;20546;-59
2023/08/07 03:26:58;;;;;;;113.70;105.78;;;;;;;;;;5028549;28;20241;-59
2023/08/07 03:29:23;;;;;;;99.47;92.47;;;;;;;;;;5028696;28;20461;-60
2023/08/07 03:31:48;;;;;;;113.38;105.60;;;;;;;;;;5028912;28;20030;-59
2023/08/07 03:34:13;;;;;;;77.03;71.80;;;;;;;;;;5028538;28;20429;-59
2023/08/07 03:36:39;;;;;;;67.90;63.27;;;;;;;;;;5028773;28;20185;-60
2023/08/07 03:39:04;;;;;;;117.40;108.93;;;;;;;;;;5028241;28;20585;-59
2023/08/07 03:41:30;;;;;;;60.03;56.05;;;;;;;;;;5014336;28;20053;-60
2023/08/07 03:43:55;;;;;;;57.70;54.03;;;;;;;;;;5008577;28;20025;-59
2023/08/07 03:46:20;;;;;;;66.25;61.75;;;;;;;;;;5008649;28;20365;-58
2023/08/07 03:48:46;;;;;;;65.47;60.78;;;;;;;;;;5008157;28;20021;-59
2023/08/07 03:51:11;;;;;;;108.57;100.75;;;;;;;;;;5008600;28;20377;-60
2023/08/07 03:53:36;;;;;;;90.20;83.65;;;;;;;;;;5008438;28;20034;-58
2023/08/07 03:56:02;;;;;;;149.40;138.35;;;;;;;;;;5007932;28;20502;-60
2023/08/07 03:58:27;;;;;;;69.00;63.97;;;;;;;;;;5008882;28;20040;-57
2023/08/07 04:00:52;;;;;;;69.07;64.43;;;;;;;;;;5008186;28;20049;-59
2023/08/07 04:03:21;;;;;;;90.57;84.68;;;;;;;;;;5008505;28;20096;-59
2023/08/07 04:05:46;;;;;;;155.20;143.55;;;;;;;;;;5007964;28;20021;-59
2023/08/07 04:08:11;;;;;;;136.90;126.75;;;;;;;;;;5008060;28;20026;-59
2023/08/07 04:10:36;;;;;;;157.15;145.52;;;;;;;;;;5008557;28;20096;-59
2023/08/07 04:13:02;;;;;;;90.93;84.60;;;;;;;;;;5007978;28;20026;-60
2023/08/07 04:15:27;;;;;;;85.75;79.95;;;;;;;;;;5021269;28;20261;-60
2023/08/07 04:17:52;;;;;;;166.55;154.05;;;;;;;;;;5027774;28;20048;-59
2023/08/07 04:20:19;;;;;;;129.75;119.72;;;;;;;;;;5027513;28;20061;-60
2023/08/07 04:22:45;;;;;;;227.18;207.57;;;;;;;;;;5027334;28;20552;-59
2023/08/07 04:25:10;;;;;;;222.07;204.38;;;;;;;;;;5026294;28;20032;-60
2023/08/07 04:27:35;;;;;;;112.03;104.03;;;;;;;;;;5027313;28;20029;-60
2023/08/07 04:30:00;;;;;;;164.15;151.88;;;;;;;;;;5027501;28;20402;-59
2023/08/07 04:32:26;;;;;;;79.68;73.88;;;;;;;;;;5026374;28;20129;-59
2023/08/07 04:34:51;;;;;;;84.93;78.93;;;;;;;;;;5027738;28;20501;-60
2023/08/07 04:37:16;;;;;;;68.20;63.50;;;;;;;;;;5027456;28;20241;-57
2023/08/07 04:39:41;;;;;;;71.63;66.88;;;;;;;;;;5027291;28;20400;-59
2023/08/07 04:42:07;;;;;;;80.45;74.72;;;;;;;;;;5042132;28;20035;-59
2023/08/07 04:44:32;;;;;;;116.03;108.50;;;;;;;;;;5042278;28;20052;-58
2023/08/07 04:46:57;;;;;;;118.77;111.00;;;;;;;;;;5027033;28;20029;-59
2023/08/07 04:49:22;;;;;;;71.10;65.90;;;;;;;;;;5026373;28;20301;-59
2023/08/07 04:51:48;;;;;;;41.57;38.70;;;;;;;;;;5027094;28;20374;-60
2023/08/07 04:54:13;;;;;;;81.10;75.80;;;;;;;;;;5026867;28;20286;-60
2023/08/07 04:56:38;;;;;;;68.05;63.83;;;;;;;;;;5027130;28;20230;-58
2023/08/07 04:59:04;;;;;;;55.00;51.53;;;;;;;;;;5026893;28;20113;-60
2023/08/07 05:01:29;;;;;;;73.85;69.43;;;;;;;;;;5027073;28;20053;-60
2023/08/07 05:03:54;;;;;;;56.08;52.58;;;;;;;;;;5027184;28;20660;-60
2023/08/07 05:06:19;;;;;;;45.63;42.60;;;;;;;;;;5025815;28;20108;-60
2023/08/07 05:08:45;;;;;;;33.88;31.52;;;;;;;;;;5027363;28;20247;-59
2023/08/07 05:11:10;;;;;;;30.38;28.30;;;;;;;;;;5026829;28;20044;-58
2023/08/07 05:13:35;;;;;;;19.43;17.53;;;;;;;;;;5026662;28;20509;-61
2023/08/07 05:16:01;;;;;;;13.88;12.63;;;;;;;;;;5026381;28;20247;-60
2023/08/07 05:18:26;;;;;;;15.45;14.07;;;;;;;;;;5026468;28;20405;-60
2023/08/07 05:20:51;;;;;;;12.88;11.77;;;;;;;;;;5026581;28;20433;-60
2023/08/07 05:23:16;;;;;;;11.70;10.73;;;;;;;;;;5013208;28;20026;-60
2023/08/07 05:25:44;;;;;;;8.80;8.07;;;;;;;;;;5006621;28;20251;-58
2023/08/07 05:28:09;;;;;;;8.68;7.90;;;;;;;;;;5006933;28;20247;-60
2023/08/07 05:30:35;;;;;;;16.73;3.90;;;;;;;;;;5006843;28;20029;-60
2023/08/07 05:33:00;;;;;;;8.75;5.47;;;;;;;;;;5006944;28;20373;-60
2023/08/07 05:35:25;;;;;;;8.03;3.83;;;;;;;;;;5006752;28;20026;-60
2023/08/07 05:37:51;;;;;;;5.95;4.05;;;;;;;;;;5006884;28;20619;-59
2023/08/07 05:40:16;;;;;;;4.18;2.80;;;;;;;;;;5007019;28;20014;-58
2023/08/07 05:42:41;;;;;;;6.67;3.23;;;;;;;;;;5007329;28;20375;-59
2023/08/07 05:45:08;;;;;;;5.65;1.75;;;;;;;;;;5025521;28;20388;-61
2023/08/07 05:47:33;;;;;;;5.30;2.50;;;;;;;;;;5029881;28;20010;-63
2023/08/07 05:49:58;;;;;;;8.27;2.13;;;;;;;;;;5016015;28;20028;-60
2023/08/07 05:52:24;;;;;;;8.27;2.93;;;;;;;;;;5005185;28;20283;-60
2023/08/07 05:54:49;;;;;;;3.28;1.73;;;;;;;;;;5015812;28;20309;-60
2023/08/07 05:57:14;;;;;;;5.67;2.17;;;;;;;;;;5026093;28;20025;-62
2023/08/07 05:59:40;;;;;;;4.68;2.13;;;;;;;;;;5020767;28;20288;-62
2023/08/07 06:02:05;;;;;;;14.45;12.93;;;;;;;;;;5027999;28;20044;-61
2023/08/07 06:04:31;;;;;;;15.45;13.15;;;;;;;;;;5028173;28;20051;-59
2023/08/07 06:06:56;;;;;;;4.90;3.50;;;;;;;;;;5027235;28;20040;-60
2023/08/07 06:09:21;;;;;;;10.17;7.93;;;;;;;;;;5034309;28;20266;-60
2023/08/07 06:11:47;;;;;;;2.60;2.15;;;;;;;;;;5033663;28;20361;-63
2023/08/07 06:14:12;;;;;;;10.57;5.38;;;;;;;;;;5021991;28;20086;-65
2023/08/07 06:16:37;;;;;;;12.63;9.50;;;;;;;;;;5018717;28;20749;-64
2023/08/07 06:19:03;;;;;;;7.43;6.13;;;;;;;;;;5009745;28;20499;-65
2023/08/07 06:21:28;;;;;;;5.25;2.33;;;;;;;;;;5036539;28;20313;-61
2023/08/07 06:23:54;;;;;;;3.85;1.42;;;;;;;;;;5028770;28;20017;-60
2023/08/07 06:26:19;;;;;;;3.88;1.50;;;;;;;;;;5018806;28;20029;-59
2023/08/07 06:28:45;;;;;;;2.42;0.98;;;;;;;;;;5020336;28;20029;-61
2023/08/07 06:31:10;;;;;;;5.43;1.30;;;;;;;;;;5018814;28;20392;-59
2023/08/07 06:33:36;;;;;;;6.22;1.52;;;;;;;;;;5009384;28;20355;-58
2023/08/07 06:36:02;;;;;;;4.95;0.98;;;;;;;;;;5011589;28;20045;-58
2023/08/07 06:38:27;;;;;;;2.90;1.17;;;;;;;;;;5027543;28;20480;-59
2023/08/07 06:40:52;;;;;;;5.57;1.63;;;;;;;;;;5021153;28;20026;-59
2023/08/07 06:43:18;;;;;;;5.00;1.08;;;;;;;;;;5024341;28;20273;-59
2023/08/07 06:45:46;;;;;;;2.63;1.08;;;;;;;;;;5025312;28;20056;-59
2023/08/07 06:48:11;;;;;;;3.10;1.17;;;;;;;;;;5022289;28;20036;-61
2023/08/07 06:50:36;;;;;;;2.88;1.25;;;;;;;;;;5015819;28;20025;-61
2023/08/07 06:53:02;;;;;;;4.37;1.77;;;;;;;;;;5022454;28;20065;-59
2023/08/07 06:55:27;;;;;;;3.35;1.63;;;;;;;;;;5009122;28;21059;-58
2023/08/07 06:57:52;;;;;;;3.13;1.13;;;;;;;;;;5008910;28;20037;-59
2023/08/07 07:00:18;;;;;;;4.77;1.53;;;;;;;;;;5025835;28;20415;-63
2023/08/07 07:02:43;;;;;;;3.25;1.10;;;;;;;;;;5016419;28;20267;-63
2023/08/07 07:05:08;;;;;;;2.80;1.30;;;;;;;;;;5028950;28;20025;-66
2023/08/07 07:07:34;;;;;;;1.40;0.57;;;;;;;;;;5028235;28;20418;-66
2023/08/07 07:10:00;;;;;;;3.17;0.88;;;;;;;;;;5014867;28;20013;-66
2023/08/07 07:12:26;;;;;;;2.08;0.90;;;;;;;;;;5018482;28;20500;-64
2023/08/07 07:14:51;;;;;;;3.53;0.93;;;;;;;;;;5021157;28;20022;-64
2023/08/07 07:17:16;;;;;;;3.37;0.83;;;;;;;;;;5016469;28;20029;-64
2023/08/07 07:19:42;;;;;;;3.80;1.00;;;;;;;;;;5008082;28;20393;-63
2023/08/07 07:22:07;;;;;;;3.97;1.50;;;;;;;;;;5018556;28;20576;-61
2023/08/07 07:24:32;;;;;;;2.37;0.73;;;;;;;;;;5013437;28;20110;-63
2023/08/07 07:26:57;;;;;;;1.93;0.73;;;;;;;;;;5016670;28;20465;-66
2023/08/07 07:29:23;;;;;;;3.53;1.13;;;;;;;;;;5023519;28;20025;-63
2023/08/07 07:31:49;;;;;;;3.10;0.70;;;;;;;;;;5018869;28;20032;-62
2023/08/07 07:34:14;;;;;;;3.97;1.25;;;;;;;;;;5018766;28;20810;-56
2023/08/07 07:36:39;;;;;;;2.43;0.77;;;;;;;;;;5019837;28;20125;-58
2023/08/07 07:39:05;;;;;;;4.80;1.03;;;;;;;;;;5018215;28;20018;-58
2023/08/07 07:41:30;;;;;;;3.80;1.20;;;;;;;;;;5021458;28;20021;-63
2023/08/07 07:43:56;;;;;;;4.80;1.80;;;;;;;;;;5021136;28;20052;-62
2023/08/07 07:46:23;;;;;;;3.28;1.08;;;;;;;;;;5015853;28;20254;-62
2023/08/07 07:48:48;;;;;;;2.83;1.20;;;;;;;;;;5030168;28;20506;-63
2023/08/07 07:51:14;;;;;;;4.43;1.33;;;;;;;;;;5012885;28;20030;-63
2023/08/07 07:53:39;;;;;;;5.10;1.10;;;;;;;;;;5019137;28;20075;-55
2023/08/07 07:56:04;;;;;;;2.03;1.00;;;;;;;;;;5014152;28;20565;-53
2023/08/07 07:58:29;;;;;;;3.83;1.47;;;;;;;;;;5019812;28;20349;-65
2023/08/07 08:00:55;;;;;;;5.27;1.90;;;;;;;;;;5020140;28;20250;-65
2023/08/07 08:03:21;;;;;;;8.80;2.13;;;;;;;;;;5020836;28;20341;-63
2023/08/07 08:05:49;;;;;;;4.68;1.80;;;;;;;;;;5036428;28;20352;-58
2023/08/07 08:08:14;;;;;;;3.07;1.77;;;;;;;;;;5012207;28;20042;-59
2023/08/07 08:10:39;;;;;;;3.83;1.60;;;;;;;;;;5020869;28;20582;-60
2023/08/07 08:13:04;;;;;;;6.80;1.47;;;;;;;;;;5020083;28;20286;-60
2023/08/07 08:15:30;;;;;;;3.97;1.63;;;;;;;;;;5023961;28;20366;-61
2023/08/07 08:17:55;;;;;;;3.72;1.42;;;;;;;;;;5022550;28;20258;-54
2023/08/07 08:20:21;;;;;;;11.40;8.93;;;;;;;;;;5023955;28;20033;-60
2023/08/07 08:22:46;;;;;;;12.52;10.45;;;;;;;;;;5021783;28;20060;-57
2023/08/07 08:25:11;;;;;;;8.95;5.70;;;;;;;;;;5029128;28;20028;-58
2023/08/07 08:27:37;;;;;;;6.10;5.38;;;;;;;;;;5019260;28;20500;-59
2023/08/07 08:30:02;;;;;;;9.85;8.07;;;;;;;;;;5014359;28;20020;-61
2023/08/07 08:32:28;;;;;;;7.28;6.68;;;;;;;;;;5015607;28;20025;-62
2023/08/07 08:34:53;;;;;;;6.17;4.57;;;;;;;;;;5023629;28;20016;-60
2023/08/07 08:37:18;;;;;;;6.50;2.08;;;;;;;;;;5019564;28;20262;-60
2023/08/07 08:39:44;;;;;;;18.23;2.05;;;;;;;;;;5026477;28;20033;-62
2023/08/07 08:42:11;;;;;;;3.53;1.17;;;;;;;;;;5027113;28;20655;-59
2023/08/07 08:44:38;;;;;;;3.45;1.25;;;;;;;;;;5015463;28;20579;-59
2023/08/07 08:47:04;;;;;;;3.85;1.33;;;;;;;;;;5023777;28;20024;-67
2023/08/07 08:49:35;;;;;;;3.75;1.65;;;;;;;;;;5017159;28;20371;-65
2023/08/07 08:52:01;;;;;;;5.38;2.55;;;;;;;;;;5012389;28;20546;-54
2023/08/07 08:54:26;;;;;;;3.75;1.92;;;;;;;;;;5026390;28;20221;-62
2023/08/07 08:56:52;;;;;;;5.07;1.15;;;;;;;;;;5023990;28;20026;-63
2023/08/07 08:59:18;;;;;;;7.75;1.55;;;;;;;;;;5018835;28;20483;-65
2023/08/07 09:01:44;;;;;;;6.63;1.50;;;;;;;;;;5015847;28;20417;-66
2023/08/07 09:04:10;;;;;;;5.55;1.60;;;;;;;;;;5025464;28;20022;-62
2023/08/07 09:06:35;;;;;;;2.47;0.90;;;;;;;;;;5025716;28;20028;-64
2023/08/07 09:09:01;;;;;;;3.53;1.13;;;;;;;;;;5021647;28;20832;-66
2023/08/07 09:11:27;;;;;;;4.55;0.85;;;;;;;;;;5020553;28;20131;-65
2023/08/07 09:13:53;;;;;;;2.35;0.98;;;;;;;;;;5029431;28;21651;-64
2023/08/07 09:16:19;;;;;;;4.68;1.10;;;;;;;;;;5026835;28;20363;-65
2023/08/07 09:18:45;;;;;;;3.92;1.42;;;;;;;;;;5023763;28;20719;-63
2023/08/07 09:21:11;;;;;;;3.75;1.20;;;;;;;;;;5019549;28;20029;-61
2023/08/07 09:23:36;;;;;;;3.53;1.20;;;;;;;;;;5027373;28;20120;-62
2023/08/07 09:26:02;;;;;;;8.13;1.87;;;;;;;;;;5013471;28;20143;-61
2023/08/07 09:28:28;;;;;;;4.18;1.73;;;;;;;;;;5016984;28;20014;-60
2023/08/07 09:30:54;;;;;;;4.22;1.42;;;;;;;;;;5015370;28;20025;-65
2023/08/07 09:33:26;;;;;;;4.22;0.80;;;;;;;;;;5020412;28;20030;-60
2023/08/07 09:35:52;;;;;;;3.90;1.40;;;;;;;;;;5020777;28;20040;-58
2023/08/07 09:38:17;;;;;;;11.00;3.05;;;;;;;;;;5022419;28;20390;-56
2023/08/07 09:40:42;;;;;;;4.87;1.73;;;;;;;;;;5029737;28;20022;-58
2023/08/07 09:43:08;;;;;;;3.07;1.03;;;;;;;;;;5022100;28;20064;-60
2023/08/07 09:45:36;;;;;;;6.55;1.75;;;;;;;;;;5036577;28;20020;-61
2023/08/07 09:48:01;;;;;;;3.47;1.30;;;;;;;;;;5024146;28;20037;-60
2023/08/07 09:50:27;;;;;;;7.87;1.70;;;;;;;;;;5017923;28;20021;-62
2023/08/07 09:52:52;;;;;;;1.70;0.75;;;;;;;;;;5009098;28;20034;-63
2023/08/07 09:55:18;;;;;;;3.47;1.95;;;;;;;;;;5026203;28;20105;-65
2023/08/07 09:57:43;;;;;;;2.65;1.38;;;;;;;;;;5021976;28;20324;-63
2023/08/07 10:00:14;;;;;;;3.97;2.33;;;;;;;;;;5036743;28;20029;-62
2023/08/07 10:02:39;;;;;;;5.38;2.35;;;;;;;;;;5004251;28;20048;-63
2023/08/07 10:05:06;;;;;;;4.60;1.23;;;;;;;;;;5033978;28;20599;-60
2023/08/07 10:07:31;;;;;;;5.25;0.85;;;;;;;;;;5024054;28;20025;-58
2023/08/07 10:09:58;;;;;;;2.88;0.98;;;;;;;;;;5025108;28;20024;-59
2023/08/07 10:12:23;;;;;;;2.05;0.60;;;;;;;;;;5027178;28;20025;-59
2023/08/07 10:14:50;;;;;;;1.90;0.60;;;;;;;;;;5021675;28;20409;-61
2023/08/07 10:17:15;;;;;;;2.17;0.85;;;;;;;;;;5030497;28;20403;-60
2023/08/07 10:19:41;;;;;;;2.88;0.95;;;;;;;;;;5035982;28;20132;-61
2023/08/07 10:22:06;;;;;;;6.50;1.38;;;;;;;;;;5015373;28;20037;-63
2023/08/07 10:24:33;;;;;;;3.10;0.98;;;;;;;;;;5026077;28;20025;-61
2023/08/07 10:26:59;;;;;;;4.20;1.20;;;;;;;;;;5030514;28;20445;-64
2023/08/07 10:29:25;;;;;;;2.33;0.70;;;;;;;;;;5015940;28;20405;-64
2023/08/07 10:31:52;;;;;;;2.00;0.90;;;;;;;;;;5021713;28;20357;-66
2023/08/07 10:34:17;;;;;;;2.00;1.00;;;;;;;;;;5024128;28;20104;-61
2023/08/07 10:36:42;;;;;;;3.50;1.27;;;;;;;;;;5023826;28;20113;-56
2023/08/07 10:39:08;;;;;;;2.50;0.80;;;;;;;;;;5022845;28;20751;-62
2023/08/07 10:41:41;;;;;;;1.23;0.70;;;;;;;;;;5016159;28;20114;-63
2023/08/07 10:44:23;;;;;;;1.75;0.80;;;;;;;;;;5023583;28;20325;-62
2023/08/07 10:46:50;;;;;;;2.25;0.93;;;;;;;;;;5013603;28;20029;-62
2023/08/07 10:49:31;;;;;;;3.20;0.98;;;;;;;;;;5024023;28;20447;-57
2023/08/07 10:51:57;;;;;;;2.28;0.75;;;;;;;;;;5024749;28;20037;-62
2023/08/07 10:54:23;;;;;;;3.45;0.88;;;;;;;;;;5057469;28;20037;-58
2023/08/07 10:56:52;;;;;;;3.22;1.45;;;;;;;;;;5035711;28;20473;-62
2023/08/07 10:59:17;;;;;;;4.57;3.47;;;;;;;;;;5025621;28;20017;-56
2023/08/07 11:01:42;;;;;;;4.37;3.97;;;;;;;;;;5024429;28;20077;-61
2023/08/07 11:04:12;;;;;;;6.68;5.32;;;;;;;;;;5024588;28;20769;-62
2023/08/07 11:06:38;;;;;;;7.88;7.03;;;;;;;;;;5024150;28;20048;-62
2023/08/07 11:09:04;;;;;;;5.13;4.50;;;;;;;;;;5024980;28;20385;-63
2023/08/07 11:11:39;;;;;;;6.10;4.03;;;;;;;;;;5024090;28;20029;-62
2023/08/07 11:14:05;;;;;;;1.85;1.45;;;;;;;;;;5026057;28;20025;-61
2023/08/07 11:16:31;;;;;;;2.00;0.77;;;;;;;;;;5022460;28;20032;-63
2023/08/07 11:18:56;;;;;;;1.97;0.90;;;;;;;;;;5008039;28;20049;-58
2023/08/07 11:21:21;;;;;;;3.22;1.13;;;;;;;;;;5010283;28;20052;-61
2023/08/07 11:23:47;;;;;;;3.40;1.23;;;;;;;;;;5049079;28;20479;-63
2023/08/07 11:26:12;;;;;;;2.88;0.88;;;;;;;;;;5033334;28;20029;-60
2023/08/07 11:28:37;;;;;;;2.77;0.70;;;;;;;;;;5028804;28;20037;-58
2023/08/07 11:31:03;;;;;;;4.30;1.73;;;;;;;;;;5024500;28;20290;-60
2023/08/07 11:33:28;;;;;;;5.35;1.13;;;;;;;;;;5024183;28;20371;-63
2023/08/07 11:35:54;;;;;;;3.28;1.05;;;;;;;;;;5027889;28;20409;-65
2023/08/07 11:38:33;;;;;;;5.93;1.02;;;;;;;;;;5025754;28;20029;-64
2023/08/07 11:41:02;;;;;;;1.65;1.00;;;;;;;;;;5031784;28;20441;-62
2023/08/07 11:43:28;;;;;;;1.52;0.80;;;;;;;;;;5025432;28;20045;-61
2023/08/07 11:45:54;;;;;;;5.22;2.58;;;;;;;;;;5031823;28;20678;-58
2023/08/07 11:48:19;;;;;;;3.40;1.60;;;;;;;;;;5022176;28;20021;-61
2023/08/07 11:50:45;;;;;;;4.05;2.33;;;;;;;;;;5032263;28;20025;-59
2023/08/07 11:53:10;;;;;;;5.45;3.03;;;;;;;;;;5021387;28;20057;-62
2023/08/07 11:55:36;;;;;;;3.72;2.58;;;;;;;;;;5023287;28;20344;-65
2023/08/07 11:58:04;;;;;;;7.20;6.47;;;;;;;;;;5021377;28;20021;-62
2023/08/07 12:00:29;;;;;;;13.95;12.77;;;;;;;;;;5027691;28;20096;-61
2023/08/07 12:02:54;;;;;;;24.83;22.77;;;;;;;;;;5019152;28;20115;-62
2023/08/07 12:05:20;;;;;;;37.90;35.45;;;;;;;;;;5023319;28;20021;-66
2023/08/07 12:07:46;;;;;;;15.45;14.18;;;;;;;;;;5021888;28;20036;-57
2023/08/07 12:10:12;;;;;;;20.15;18.38;;;;;;;;;;5029100;28;20120;-55
2023/08/07 12:12:37;;;;;;;28.53;26.23;;;;;;;;;;5022492;28;20232;-57
2023/08/07 12:15:06;;;;;;;70.07;64.78;;;;;;;;;;5031091;28;20742;-63
2023/08/07 12:17:32;;;;;;;136.65;128.25;;;;;;;;;;5024212;28;20017;-57
2023/08/07 12:19:58;;;;;;;999.03;315.50;;;;;;;;;;5016755;28;20681;-66
2023/08/07 12:24:54;;;;;;;809.05;617.28;;;;;;;;;;5062484;28;20356;-60
2023/08/07 12:27:19;;;;;;;798.60;618.38;;;;;;;;;;5047267;28;20128;-61
2023/08/07 12:29:44;;;;;;;795.65;599.85;;;;;;;;;;5049830;28;20068;-62
2023/08/07 12:32:10;;;;;;;767.15;563.15;;;;;;;;;;5039581;28;20071;-62
2023/08/07 12:34:36;;;;;;;778.35;596.45;;;;;;;;;;5041596;28;20112;-59
2023/08/07 12:37:01;;;;;;;750.50;610.20;;;;;;;;;;5052294;28;20292;-67
2023/08/07 12:39:26;;;;;;;653.40;583.65;;;;;;;;;;5049112;28;20518;-59
2023/08/07 12:41:51;;;;;;;682.30;613.88;;;;;;;;;;5043201;28;20032;-63
2023/08/07 12:44:17;;;;;;;735.05;666.45;;;;;;;;;;5042144;28;20105;-64
2023/08/07 12:46:42;;;;;;;709.15;642.13;;;;;;;;;;5050225;28;20024;-64
2023/08/07 12:49:10;;;;;;;735.17;667.47;;;;;;;;;;5061732;28;20453;-61
2023/08/07 12:51:35;;;;;;;707.20;637.88;;;;;;;;;;5045599;28;20328;-62
2023/08/07 12:54:01;;;;;;;736.08;670.35;;;;;;;;;;5052331;28;20072;-64
2023/08/07 12:56:26;;;;;;;750.57;683.10;;;;;;;;;;5053988;28;20427;-62
2023/08/07 12:58:51;;;;;;;744.00;677.33;;;;;;;;;;5043744;28;20270;-61
2023/08/07 13:01:16;;;;;;;725.78;661.17;;;;;;;;;;5044978;28;20261;-61
2023/08/07 13:03:42;;;;;;;729.63;665.67;;;;;;;;;;5048650;28;20052;-63
2023/08/07 13:06:08;;;;;;;721.70;658.07;;;;;;;;;;5043660;28;20043;-61
2023/08/07 13:08:34;;;;;;;793.47;722.08;;;;;;;;;;5042180;28;20305;-63
2023/08/07 13:11:00;;;;;;;708.50;642.47;;;;;;;;;;5040182;28;20056;-59
2023/08/07 13:13:27;;;;;;;693.72;630.72;;;;;;;;;;5052059;28;20108;-61
2023/08/07 13:15:53;;;;;;;690.03;624.97;;;;;;;;;;5047429;28;20454;-63
2023/08/07 13:18:18;;;;;;;843.83;768.78;;;;;;;;;;5044276;28;20108;-60
2023/08/07 13:20:43;;;;;;;773.03;702.53;;;;;;;;;;5041660;28;20535;-58
2023/08/07 13:23:08;;;;;;;752.97;688.40;;;;;;;;;;5048677;28;20309;-62
2023/08/07 13:25:34;;;;;;;741.40;677.80;;;;;;;;;;5046715;28;20340;-61
2023/08/07 13:28:00;;;;;;;827.22;757.58;;;;;;;;;;5044872;28;20389;-61
2023/08/07 13:30:26;;;;;;;807.22;735.35;;;;;;;;;;5043622;28;20104;-63
2023/08/07 13:32:51;;;;;;;697.28;632.40;;;;;;;;;;5052932;28;20473;-61
2023/08/07 13:35:16;;;;;;;815.17;744.03;;;;;;;;;;5036158;28;20120;-60
2023/08/07 13:37:42;;;;;;;710.13;644.60;;;;;;;;;;5030685;28;20270;-62
2023/08/07 13:40:07;;;;;;;774.78;704.75;;;;;;;;;;5035827;28;20135;-63
2023/08/07 13:42:33;;;;;;;787.13;717.13;;;;;;;;;;5031459;28;20511;-62
2023/08/07 13:44:59;;;;;;;774.03;703.60;;;;;;;;;;5033241;28;20440;-62
2023/08/07 13:47:25;;;;;;;821.95;752.95;;;;;;;;;;5031316;28;20079;-62
2023/08/07 13:49:52;;;;;;;798.92;731.00;;;;;;;;;;5029289;28;20025;-62
2023/08/07 13:52:18;;;;;;;762.42;693.25;;;;;;;;;;5033179;28;20059;-63
2023/08/07 13:54:43;;;;;;;813.28;744.17;;;;;;;;;;5028404;28;20034;-61
2023/08/07 13:57:09;;;;;;;796.78;726.95;;;;;;;;;;5029066;28;20262;-59
2023/08/07 13:59:34;;;;;;;819.83;750.00;;;;;;;;;;5032216;28;20041;-63
2023/08/07 14:02:00;;;;;;;820.80;747.92;;;;;;;;;;5023784;28;20024;-62
2023/08/07 14:04:26;;;;;;;811.45;739.92;;;;;;;;;;5036752;28;20039;-60
2023/08/07 14:06:52;;;;;;;726.42;660.42;;;;;;;;;;5028167;28;20037;-59
2023/08/07 14:09:21;;;;;;;811.55;741.85;;;;;;;;;;5029020;28;20047;-62
2023/08/07 14:11:47;;;;;;;694.30;629.05;;;;;;;;;;5035381;28;20033;-61
2023/08/07 14:14:13;;;;;;;676.05;614.97;;;;;;;;;;5009311;28;20441;-63
2023/08/07 14:16:38;;;;;;;682.85;619.50;;;;;;;;;;5038146;28;20112;-63